sensor_id;sensor_type;location;lat;lon;timestamp;temperature;humidity
10642;DHT22;5369;49.586;8.646;2023-05-10T00:01:15;15.90;99.90
10642;DHT22;5369;49.586;8.646;2023-05-10T00:03:41;15.80;99.90
10642;DHT22;5369;49.586;8.646;2023-05-10T00:06:06;15.90;99.90
10642;DHT22;5369;49.586;8.646;2023-05-10T00:08:32;15.90;99.90
10642;DHT22;5369;49.586;8.646;2023-05-10T00:10:58;15.90;99.90
10642;DHT22;5369;49.586;8.646;2023-05-10T00:13:24;15.90;99.90
10642;DHT22;5369;49.586;8.646;2023-05-10T00:15:50;15.90;99.90
10642;DHT22;5369;49.586;8.646;2023-05-10T00:18:16;15.90;99.90
10642;DHT22;5369;49.586;8.646;2023-05-10T00:20:41;15.90;99.90
10642;DHT22;5369;49.586;8.646;2023-05-10T00:23:07;15.90;99.90
10642;DHT22;5369;49.586;8.646;2023-05-10T00:25:33;15.90;99.90
10642;DHT22;5369;49.586;8.646;2023-05-10T00:27:59;15.90;99.90
10642;DHT22;5369;49.586;8.646;2023-05-10T00:30:26;15.90;99.90
10642;DHT22;5369;49.586;8.646;2023-05-10T00:32:52;15.90;99.90
10642;DHT22;5369;49.586;8.646;2023-05-10T00:35:18;15.90;99.90
10642;DHT22;5369;49.586;8.646;2023-05-10T00:37:43;15.90;99.90
10642;DHT22;5369;49.586;8.646;2023-05-10T00:40:10;15.80;99.90
10642;DHT22;5369;49.586;8.646;2023-05-10T00:42:35;15.80;99.90
10642;DHT22;5369;49.586;8.646;2023-05-10T00:45:01;15.80;99.90
10642;DHT22;5369;49.586;8.646;2023-05-10T00:47:28;15.80;99.90
10642;DHT22;5369;49.586;8.646;2023-05-10T00:49:55;15.80;99.90
10642;DHT22;5369;49.586;8.646;2023-05-10T00:52:21;15.70;99.90
10642;DHT22;5369;49.586;8.646;2023-05-10T00:54:50;15.70;99.90
10642;DHT22;5369;49.586;8.646;2023-05-10T00:57:17;15.70;99.90
10642;DHT22;5369;49.586;8.646;2023-05-10T00:59:44;15.70;99.90
10642;DHT22;5369;49.586;8.646;2023-05-10T01:02:10;15.70;99.90
10642;DHT22;5369;49.586;8.646;2023-05-10T01:04:36;15.60;99.90
10642;DHT22;5369;49.586;8.646;2023-05-10T01:07:03;15.70;99.90
10642;DHT22;5369;49.586;8.646;2023-05-10T01:09:28;15.70;99.90
10642;DHT22;5369;49.586;8.646;2023-05-10T01:11:55;15.70;99.90
10642;DHT22;5369;49.586;8.646;2023-05-10T01:14:21;15.60;99.90
10642;DHT22;5369;49.586;8.646;2023-05-10T01:16:49;15.70;99.90
10642;DHT22;5369;49.586;8.646;2023-05-10T01:19:29;15.70;99.90
10642;DHT22;5369;49.586;8.646;2023-05-10T01:21:59;15.60;99.90
10642;DHT22;5369;49.586;8.646;2023-05-10T01:24:55;15.60;99.90
10642;DHT22;5369;49.586;8.646;2023-05-10T01:30:42;15.60;99.90
10642;DHT22;5369;49.586;8.646;2023-05-10T01:36:16;15.60;99.90
10642;DHT22;5369;49.586;8.646;2023-05-10T01:38:51;15.60;99.90
10642;DHT22;5369;49.586;8.646;2023-05-10T01:41:24;15.60;99.90
10642;DHT22;5369;49.586;8.646;2023-05-10T01:43:57;15.60;99.90
10642;DHT22;5369;49.586;8.646;2023-05-10T01:46:34;15.60;99.90
10642;DHT22;5369;49.586;8.646;2023-05-10T01:49:03;15.60;99.90
10642;DHT22;5369;49.586;8.646;2023-05-10T01:51:39;15.60;99.90
10642;DHT22;5369;49.586;8.646;2023-05-10T01:54:08;15.60;99.90
10642;DHT22;5369;49.586;8.646;2023-05-10T01:56:35;15.60;99.90
10642;DHT22;5369;49.586;8.646;2023-05-10T01:59:06;15.50;99.90
10642;DHT22;5369;49.586;8.646;2023-05-10T02:01:33;15.50;99.90
10642;DHT22;5369;49.586;8.646;2023-05-10T02:04:01;15.50;99.90
10642;DHT22;5369;49.586;8.646;2023-05-10T02:06:28;15.50;99.90
10642;DHT22;5369;49.586;8.646;2023-05-10T02:08:55;15.50;99.90
10642;DHT22;5369;49.586;8.646;2023-05-10T02:11:21;15.60;99.90
10642;DHT22;5369;49.586;8.646;2023-05-10T02:13:50;15.50;99.90
10642;DHT22;5369;49.586;8.646;2023-05-10T02:16:18;15.50;99.90
10642;DHT22;5369;49.586;8.646;2023-05-10T02:18:48;15.50;99.90
10642;DHT22;5369;49.586;8.646;2023-05-10T02:21:15;15.50;99.90
10642;DHT22;5369;49.586;8.646;2023-05-10T02:23:43;15.50;99.90
10642;DHT22;5369;49.586;8.646;2023-05-10T02:26:11;15.40;99.90
10642;DHT22;5369;49.586;8.646;2023-05-10T02:28:39;15.40;99.90
10642;DHT22;5369;49.586;8.646;2023-05-10T02:31:06;15.40;99.90
10642;DHT22;5369;49.586;8.646;2023-05-10T02:33:33;15.40;99.90
10642;DHT22;5369;49.586;8.646;2023-05-10T02:36:00;15.40;99.90
10642;DHT22;5369;49.586;8.646;2023-05-10T02:38:27;15.40;99.90
10642;DHT22;5369;49.586;8.646;2023-05-10T02:40:54;15.40;99.90
10642;DHT22;5369;49.586;8.646;2023-05-10T02:43:22;15.40;99.90
10642;DHT22;5369;49.586;8.646;2023-05-10T02:45:49;15.40;99.90
10642;DHT22;5369;49.586;8.646;2023-05-10T02:48:15;15.40;99.90
10642;DHT22;5369;49.586;8.646;2023-05-10T02:50:44;15.40;99.90
10642;DHT22;5369;49.586;8.646;2023-05-10T02:53:14;15.40;99.90
10642;DHT22;5369;49.586;8.646;2023-05-10T02:55:42;15.40;99.90
10642;DHT22;5369;49.586;8.646;2023-05-10T02:58:10;15.40;99.90
10642;DHT22;5369;49.586;8.646;2023-05-10T03:00:36;15.40;99.90
10642;DHT22;5369;49.586;8.646;2023-05-10T03:03:02;15.40;99.90
10642;DHT22;5369;49.586;8.646;2023-05-10T03:05:28;15.40;99.90
10642;DHT22;5369;49.586;8.646;2023-05-10T03:07:55;15.40;99.90
10642;DHT22;5369;49.586;8.646;2023-05-10T03:10:26;15.40;99.90
10642;DHT22;5369;49.586;8.646;2023-05-10T03:13:31;15.30;99.90
10642;DHT22;5369;49.586;8.646;2023-05-10T03:21:07;15.30;99.90
10642;DHT22;5369;49.586;8.646;2023-05-10T03:26:08;15.20;99.90
10642;DHT22;5369;49.586;8.646;2023-05-10T03:28:34;15.20;99.90
10642;DHT22;5369;49.586;8.646;2023-05-10T03:31:04;15.30;99.90
10642;DHT22;5369;49.586;8.646;2023-05-10T03:33:32;15.30;99.90
10642;DHT22;5369;49.586;8.646;2023-05-10T03:35:58;15.30;99.90
10642;DHT22;5369;49.586;8.646;2023-05-10T03:38:25;15.30;99.90
10642;DHT22;5369;49.586;8.646;2023-05-10T03:40:51;15.20;99.90
10642;DHT22;5369;49.586;8.646;2023-05-10T03:43:16;15.20;99.90
10642;DHT22;5369;49.586;8.646;2023-05-10T03:45:42;15.30;99.90
10642;DHT22;5369;49.586;8.646;2023-05-10T03:48:08;15.20;99.90
10642;DHT22;5369;49.586;8.646;2023-05-10T03:50:33;15.30;99.90
10642;DHT22;5369;49.586;8.646;2023-05-10T03:52:59;15.20;99.90
10642;DHT22;5369;49.586;8.646;2023-05-10T03:55:26;15.20;99.90
10642;DHT22;5369;49.586;8.646;2023-05-10T03:57:52;15.20;99.90
10642;DHT22;5369;49.586;8.646;2023-05-10T04:00:20;15.20;99.90
10642;DHT22;5369;49.586;8.646;2023-05-10T04:02:50;15.20;99.90
10642;DHT22;5369;49.586;8.646;2023-05-10T04:05:18;15.20;99.90
10642;DHT22;5369;49.586;8.646;2023-05-10T04:07:44;15.20;99.90
10642;DHT22;5369;49.586;8.646;2023-05-10T04:10:11;15.20;99.90
10642;DHT22;5369;49.586;8.646;2023-05-10T04:12:36;15.10;99.90
10642;DHT22;5369;49.586;8.646;2023-05-10T04:15:03;15.10;99.90
10642;DHT22;5369;49.586;8.646;2023-05-10T04:17:29;15.10;99.90
10642;DHT22;5369;49.586;8.646;2023-05-10T04:19:55;15.20;99.90
10642;DHT22;5369;49.586;8.646;2023-05-10T04:22:21;15.20;99.90
10642;DHT22;5369;49.586;8.646;2023-05-10T04:24:47;15.20;99.90
10642;DHT22;5369;49.586;8.646;2023-05-10T04:27:12;15.20;99.90
10642;DHT22;5369;49.586;8.646;2023-05-10T04:29:38;15.20;99.90
10642;DHT22;5369;49.586;8.646;2023-05-10T04:32:04;15.20;99.90
10642;DHT22;5369;49.586;8.646;2023-05-10T04:34:30;15.10;99.90
10642;DHT22;5369;49.586;8.646;2023-05-10T04:36:55;15.10;99.90
10642;DHT22;5369;49.586;8.646;2023-05-10T04:39:21;15.20;99.90
10642;DHT22;5369;49.586;8.646;2023-05-10T04:41:47;15.10;99.90
10642;DHT22;5369;49.586;8.646;2023-05-10T04:44:12;15.10;99.90
10642;DHT22;5369;49.586;8.646;2023-05-10T04:46:38;15.10;99.90
10642;DHT22;5369;49.586;8.646;2023-05-10T04:49:04;15.10;99.90
10642;DHT22;5369;49.586;8.646;2023-05-10T04:51:30;15.10;99.90
10642;DHT22;5369;49.586;8.646;2023-05-10T04:53:56;15.10;99.90
10642;DHT22;5369;49.586;8.646;2023-05-10T04:56:22;15.10;99.90
10642;DHT22;5369;49.586;8.646;2023-05-10T04:58:48;15.10;99.90
10642;DHT22;5369;49.586;8.646;2023-05-10T05:01:13;15.20;99.90
10642;DHT22;5369;49.586;8.646;2023-05-10T05:03:39;15.10;99.90
10642;DHT22;5369;49.586;8.646;2023-05-10T05:06:05;15.10;99.90
10642;DHT22;5369;49.586;8.646;2023-05-10T05:08:31;15.10;99.90
10642;DHT22;5369;49.586;8.646;2023-05-10T05:10:56;15.10;99.90
10642;DHT22;5369;49.586;8.646;2023-05-10T05:13:22;15.10;99.90
10642;DHT22;5369;49.586;8.646;2023-05-10T05:15:48;15.10;99.90
10642;DHT22;5369;49.586;8.646;2023-05-10T05:18:13;15.10;99.90
10642;DHT22;5369;49.586;8.646;2023-05-10T05:20:39;15.10;99.90
10642;DHT22;5369;49.586;8.646;2023-05-10T05:23:05;15.20;99.90
10642;DHT22;5369;49.586;8.646;2023-05-10T05:25:31;15.20;99.90
10642;DHT22;5369;49.586;8.646;2023-05-10T05:27:57;15.30;99.90
10642;DHT22;5369;49.586;8.646;2023-05-10T05:30:22;15.30;99.90
10642;DHT22;5369;49.586;8.646;2023-05-10T05:32:48;15.30;99.90
10642;DHT22;5369;49.586;8.646;2023-05-10T05:35:14;15.30;99.90
10642;DHT22;5369;49.586;8.646;2023-05-10T05:37:39;15.40;99.90
10642;DHT22;5369;49.586;8.646;2023-05-10T05:40:06;15.30;99.90
10642;DHT22;5369;49.586;8.646;2023-05-10T05:42:32;15.30;99.90
10642;DHT22;5369;49.586;8.646;2023-05-10T05:44:58;15.40;99.90
10642;DHT22;5369;49.586;8.646;2023-05-10T05:47:23;15.30;99.90
10642;DHT22;5369;49.586;8.646;2023-05-10T05:49:49;15.30;99.90
10642;DHT22;5369;49.586;8.646;2023-05-10T05:52:15;15.30;99.90
10642;DHT22;5369;49.586;8.646;2023-05-10T05:54:40;15.40;99.90
10642;DHT22;5369;49.586;8.646;2023-05-10T05:57:06;15.40;99.90
10642;DHT22;5369;49.586;8.646;2023-05-10T05:59:33;15.40;99.90
10642;DHT22;5369;49.586;8.646;2023-05-10T06:01:58;15.40;99.90
10642;DHT22;5369;49.586;8.646;2023-05-10T06:04:24;15.40;99.90
10642;DHT22;5369;49.586;8.646;2023-05-10T06:06:50;15.40;99.90
10642;DHT22;5369;49.586;8.646;2023-05-10T06:09:15;15.40;99.90
10642;DHT22;5369;49.586;8.646;2023-05-10T06:11:41;15.40;99.90
10642;DHT22;5369;49.586;8.646;2023-05-10T06:14:07;15.40;99.90
10642;DHT22;5369;49.586;8.646;2023-05-10T06:16:34;15.40;99.90
10642;DHT22;5369;49.586;8.646;2023-05-10T06:19:00;15.30;99.90
10642;DHT22;5369;49.586;8.646;2023-05-10T06:21:25;15.30;99.90
10642;DHT22;5369;49.586;8.646;2023-05-10T06:23:51;15.40;99.90
10642;DHT22;5369;49.586;8.646;2023-05-10T06:26:17;15.40;99.90
10642;DHT22;5369;49.586;8.646;2023-05-10T06:28:43;15.60;99.90
10642;DHT22;5369;49.586;8.646;2023-05-10T06:31:08;15.70;99.90
10642;DHT22;5369;49.586;8.646;2023-05-10T06:33:34;15.70;99.90
10642;DHT22;5369;49.586;8.646;2023-05-10T06:36:00;15.80;99.90
10642;DHT22;5369;49.586;8.646;2023-05-10T06:38:26;15.80;99.90
10642;DHT22;5369;49.586;8.646;2023-05-10T06:40:52;15.90;99.90
10642;DHT22;5369;49.586;8.646;2023-05-10T06:43:18;15.90;99.90
10642;DHT22;5369;49.586;8.646;2023-05-10T06:45:43;16.00;99.90
10642;DHT22;5369;49.586;8.646;2023-05-10T06:48:09;16.00;99.90
10642;DHT22;5369;49.586;8.646;2023-05-10T06:50:35;16.10;99.90
10642;DHT22;5369;49.586;8.646;2023-05-10T06:53:01;16.10;99.90
10642;DHT22;5369;49.586;8.646;2023-05-10T06:55:29;16.10;99.90
10642;DHT22;5369;49.586;8.646;2023-05-10T06:57:55;16.10;99.90
10642;DHT22;5369;49.586;8.646;2023-05-10T07:00:21;16.10;99.90
10642;DHT22;5369;49.586;8.646;2023-05-10T07:02:47;16.10;99.90
10642;DHT22;5369;49.586;8.646;2023-05-10T07:05:13;16.10;99.90
10642;DHT22;5369;49.586;8.646;2023-05-10T07:07:39;16.10;99.90
10642;DHT22;5369;49.586;8.646;2023-05-10T07:10:05;16.10;99.90
10642;DHT22;5369;49.586;8.646;2023-05-10T07:12:31;16.10;99.90
10642;DHT22;5369;49.586;8.646;2023-05-10T07:14:57;16.00;99.90
10642;DHT22;5369;49.586;8.646;2023-05-10T07:17:23;16.10;99.90
10642;DHT22;5369;49.586;8.646;2023-05-10T07:19:48;16.10;99.90
10642;DHT22;5369;49.586;8.646;2023-05-10T07:22:15;16.10;99.90
10642;DHT22;5369;49.586;8.646;2023-05-10T07:24:42;16.10;99.90
10642;DHT22;5369;49.586;8.646;2023-05-10T07:27:07;16.10;99.90
10642;DHT22;5369;49.586;8.646;2023-05-10T07:29:34;16.10;99.90
10642;DHT22;5369;49.586;8.646;2023-05-10T07:32:00;16.20;99.90
10642;DHT22;5369;49.586;8.646;2023-05-10T07:34:26;16.20;99.90
10642;DHT22;5369;49.586;8.646;2023-05-10T07:36:53;16.30;99.90
10642;DHT22;5369;49.586;8.646;2023-05-10T07:39:18;16.50;99.90
10642;DHT22;5369;49.586;8.646;2023-05-10T07:41:46;16.60;99.90
10642;DHT22;5369;49.586;8.646;2023-05-10T07:44:11;16.70;99.90
10642;DHT22;5369;49.586;8.646;2023-05-10T07:46:37;16.80;99.90
10642;DHT22;5369;49.586;8.646;2023-05-10T07:49:03;17.00;99.90
10642;DHT22;5369;49.586;8.646;2023-05-10T07:51:29;17.00;99.90
10642;DHT22;5369;49.586;8.646;2023-05-10T07:53:55;17.20;99.90
10642;DHT22;5369;49.586;8.646;2023-05-10T07:56:29;17.30;99.90
10642;DHT22;5369;49.586;8.646;2023-05-10T07:58:56;17.50;99.90
10642;DHT22;5369;49.586;8.646;2023-05-10T08:01:22;17.60;99.90
10642;DHT22;5369;49.586;8.646;2023-05-10T08:03:48;17.70;99.90
10642;DHT22;5369;49.586;8.646;2023-05-10T08:06:17;17.70;99.90
10642;DHT22;5369;49.586;8.646;2023-05-10T08:08:43;17.70;99.90
10642;DHT22;5369;49.586;8.646;2023-05-10T08:11:08;17.80;99.90
10642;DHT22;5369;49.586;8.646;2023-05-10T08:13:34;17.80;99.90
10642;DHT22;5369;49.586;8.646;2023-05-10T08:16:00;17.90;99.90
10642;DHT22;5369;49.586;8.646;2023-05-10T08:18:26;17.90;99.90
10642;DHT22;5369;49.586;8.646;2023-05-10T08:20:51;17.80;99.90
10642;DHT22;5369;49.586;8.646;2023-05-10T08:23:17;17.90;99.90
10642;DHT22;5369;49.586;8.646;2023-05-10T08:25:43;18.00;99.90
10642;DHT22;5369;49.586;8.646;2023-05-10T08:28:09;18.10;99.90
10642;DHT22;5369;49.586;8.646;2023-05-10T08:30:34;18.20;99.90
10642;DHT22;5369;49.586;8.646;2023-05-10T08:33:00;18.30;99.90
10642;DHT22;5369;49.586;8.646;2023-05-10T08:35:26;18.40;99.90
10642;DHT22;5369;49.586;8.646;2023-05-10T08:37:51;18.60;99.90
10642;DHT22;5369;49.586;8.646;2023-05-10T08:40:19;18.80;99.90
10642;DHT22;5369;49.586;8.646;2023-05-10T08:42:54;18.90;99.90
10642;DHT22;5369;49.586;8.646;2023-05-10T08:45:23;19.00;99.90
10642;DHT22;5369;49.586;8.646;2023-05-10T08:47:49;19.10;99.90
10642;DHT22;5369;49.586;8.646;2023-05-10T08:50:17;19.10;99.90
10642;DHT22;5369;49.586;8.646;2023-05-10T08:52:45;18.90;99.90
10642;DHT22;5369;49.586;8.646;2023-05-10T08:55:13;18.80;99.90
10642;DHT22;5369;49.586;8.646;2023-05-10T08:57:39;18.80;99.90
10642;DHT22;5369;49.586;8.646;2023-05-10T09:00:05;18.90;99.90
10642;DHT22;5369;49.586;8.646;2023-05-10T09:02:32;18.90;99.90
10642;DHT22;5369;49.586;8.646;2023-05-10T09:04:58;19.00;99.90
10642;DHT22;5369;49.586;8.646;2023-05-10T09:07:24;19.10;99.90
10642;DHT22;5369;49.586;8.646;2023-05-10T09:09:50;19.10;99.90
10642;DHT22;5369;49.586;8.646;2023-05-10T09:12:16;19.20;99.90
10642;DHT22;5369;49.586;8.646;2023-05-10T09:14:44;19.20;99.90
10642;DHT22;5369;49.586;8.646;2023-05-10T09:17:10;19.20;99.90
10642;DHT22;5369;49.586;8.646;2023-05-10T09:19:36;19.00;99.90
10642;DHT22;5369;49.586;8.646;2023-05-10T09:22:01;18.90;99.90
10642;DHT22;5369;49.586;8.646;2023-05-10T09:24:29;18.80;99.90
10642;DHT22;5369;49.586;8.646;2023-05-10T09:26:57;18.70;99.90
10642;DHT22;5369;49.586;8.646;2023-05-10T09:29:23;18.50;99.90
10642;DHT22;5369;49.586;8.646;2023-05-10T09:31:52;18.40;99.90
10642;DHT22;5369;49.586;8.646;2023-05-10T09:34:31;18.20;99.90
10642;DHT22;5369;49.586;8.646;2023-05-10T09:37:00;17.90;99.90
10642;DHT22;5369;49.586;8.646;2023-05-10T09:39:36;17.50;99.90
10642;DHT22;5369;49.586;8.646;2023-05-10T09:42:05;17.30;99.90
10642;DHT22;5369;49.586;8.646;2023-05-10T09:44:33;17.20;99.90
10642;DHT22;5369;49.586;8.646;2023-05-10T09:46:59;17.10;99.90
10642;DHT22;5369;49.586;8.646;2023-05-10T09:49:25;17.30;99.90
10642;DHT22;5369;49.586;8.646;2023-05-10T09:52:00;17.40;99.90
10642;DHT22;5369;49.586;8.646;2023-05-10T09:54:26;17.50;99.90
10642;DHT22;5369;49.586;8.646;2023-05-10T09:56:52;17.70;99.90
10642;DHT22;5369;49.586;8.646;2023-05-10T09:59:18;17.90;99.90
10642;DHT22;5369;49.586;8.646;2023-05-10T10:01:49;18.20;99.90
10642;DHT22;5369;49.586;8.646;2023-05-10T10:04:16;18.40;99.90
10642;DHT22;5369;49.586;8.646;2023-05-10T10:06:42;18.60;99.90
10642;DHT22;5369;49.586;8.646;2023-05-10T10:09:09;18.70;99.90
10642;DHT22;5369;49.586;8.646;2023-05-10T10:11:36;18.80;99.90
10642;DHT22;5369;49.586;8.646;2023-05-10T10:14:02;18.80;99.90
10642;DHT22;5369;49.586;8.646;2023-05-10T10:16:32;18.90;99.90
10642;DHT22;5369;49.586;8.646;2023-05-10T10:18:58;18.70;99.90
10642;DHT22;5369;49.586;8.646;2023-05-10T10:21:24;18.70;99.90
10642;DHT22;5369;49.586;8.646;2023-05-10T10:23:51;18.60;99.90
10642;DHT22;5369;49.586;8.646;2023-05-10T10:26:17;18.60;99.90
10642;DHT22;5369;49.586;8.646;2023-05-10T10:31:55;18.30;99.90
10642;DHT22;5369;49.586;8.646;2023-05-10T10:34:28;18.00;99.90
10642;DHT22;5369;49.586;8.646;2023-05-10T10:36:56;17.70;99.90
10642;DHT22;5369;49.586;8.646;2023-05-10T10:39:23;17.40;99.90
10642;DHT22;5369;49.586;8.646;2023-05-10T10:41:55;17.30;99.90
10642;DHT22;5369;49.586;8.646;2023-05-10T10:49:32;17.10;99.90
10642;DHT22;5369;49.586;8.646;2023-05-10T10:54:57;17.50;99.90
10642;DHT22;5369;49.586;8.646;2023-05-10T10:57:24;17.70;99.90
10642;DHT22;5369;49.586;8.646;2023-05-10T10:59:56;17.90;99.90
10642;DHT22;5369;49.586;8.646;2023-05-10T11:05:32;18.40;99.90
10642;DHT22;5369;49.586;8.646;2023-05-10T11:08:29;18.80;99.90
10642;DHT22;5369;49.586;8.646;2023-05-10T11:13:32;19.20;91.60
10642;DHT22;5369;49.586;8.646;2023-05-10T11:18:38;19.00;91.30
10642;DHT22;5369;49.586;8.646;2023-05-10T11:21:04;19.10;92.30
10642;DHT22;5369;49.586;8.646;2023-05-10T11:26:13;19.30;88.00
10642;DHT22;5369;49.586;8.646;2023-05-10T11:28:44;19.30;78.60
10642;DHT22;5369;49.586;8.646;2023-05-10T11:31:10;19.20;74.80
10642;DHT22;5369;49.586;8.646;2023-05-10T11:33:49;19.20;77.60
10642;DHT22;5369;49.586;8.646;2023-05-10T11:36:29;19.20;77.00
10642;DHT22;5369;49.586;8.646;2023-05-10T11:38:56;19.30;79.10
10642;DHT22;5369;49.586;8.646;2023-05-10T11:41:23;19.40;78.00
10642;DHT22;5369;49.586;8.646;2023-05-10T11:43:50;19.40;78.60
10642;DHT22;5369;49.586;8.646;2023-05-10T11:46:18;19.40;82.60
10642;DHT22;5369;49.586;8.646;2023-05-10T11:48:47;19.30;81.80
10642;DHT22;5369;49.586;8.646;2023-05-10T11:51:15;19.10;78.10
10642;DHT22;5369;49.586;8.646;2023-05-10T11:53:41;18.90;80.70
10642;DHT22;5369;49.586;8.646;2023-05-10T11:56:10;18.70;77.60
10642;DHT22;5369;49.586;8.646;2023-05-10T11:58:39;18.50;78.00
10642;DHT22;5369;49.586;8.646;2023-05-10T12:01:07;18.30;77.00
10642;DHT22;5369;49.586;8.646;2023-05-10T12:03:33;18.40;79.70
10642;DHT22;5369;49.586;8.646;2023-05-10T12:06:00;18.50;80.00
10642;DHT22;5369;49.586;8.646;2023-05-10T12:08:28;18.80;76.50
10642;DHT22;5369;49.586;8.646;2023-05-10T12:11:08;19.10;80.90
10642;DHT22;5369;49.586;8.646;2023-05-10T12:13:38;19.60;79.20
10642;DHT22;5369;49.586;8.646;2023-05-10T12:16:21;20.40;69.40
10642;DHT22;5369;49.586;8.646;2023-05-10T12:18:55;21.10;64.90
10642;DHT22;5369;49.586;8.646;2023-05-10T12:21:21;21.70;60.80
10642;DHT22;5369;49.586;8.646;2023-05-10T12:23:54;22.10;60.80
10642;DHT22;5369;49.586;8.646;2023-05-10T12:26:24;22.50;60.10
10642;DHT22;5369;49.586;8.646;2023-05-10T12:28:53;22.40;57.60
10642;DHT22;5369;49.586;8.646;2023-05-10T12:31:19;22.10;59.00
10642;DHT22;5369;49.586;8.646;2023-05-10T12:33:45;21.70;58.50
10642;DHT22;5369;49.586;8.646;2023-05-10T12:36:16;21.50;59.50
10642;DHT22;5369;49.586;8.646;2023-05-10T12:38:43;21.50;60.60
10642;DHT22;5369;49.586;8.646;2023-05-10T12:41:11;21.30;60.70
10642;DHT22;5369;49.586;8.646;2023-05-10T12:43:37;21.20;61.40
10642;DHT22;5369;49.586;8.646;2023-05-10T12:46:14;21.00;61.20
10642;DHT22;5369;49.586;8.646;2023-05-10T12:48:41;20.70;62.60
